Time;durP1;ratioP1;P1;durP2;ratioP2;P2;SDS_P1;SDS_P2;PMS_P1;PMS_P2;Temp;Humidity;BMP_temperature;BMP_pressure;BME280_temperature;BME280_humidity;BME280_pressure;Samples;Min_cycle;Max_cycle;Signal;HPM_P1;HPM_P2
2022/05/10 00:01:00;;;;;;;;;;;19.10;58.90;;;;;;4935641;29;19967;-59
2022/05/10 00:03:36;;;;;;;;;;;19.10;59.10;;;;;;4935430;29;19980;-58
2022/05/10 00:06:02;;;;;;;;;;;19.00;59.40;;;;;;4935484;29;20371;-58
2022/05/10 00:08:28;;;;;;;;;;;19.00;59.60;;;;;;4937368;29;19917;-58
2022/05/10 00:10:56;;;;;;;;;;;19.00;59.70;;;;;;4939323;29;20394;-59
2022/05/10 00:13:23;;;;;;;;;;;18.90;60.00;;;;;;4939327;29;19914;-57
2022/05/10 00:15:49;;;;;;;;;;;18.90;59.40;;;;;;4939226;29;19919;-59
2022/05/10 00:18:15;;;;;;;;;;;18.90;59.20;;;;;;4939479;29;20442;-59
2022/05/10 00:20:41;;;;;;;;;;;18.90;59.70;;;;;;4939102;29;20053;-59
2022/05/10 00:23:07;;;;;;;;;;;18.90;60.00;;;;;;4939248;29;19911;-57
2022/05/10 00:25:32;;;;;;;;;;;18.90;60.40;;;;;;4939220;29;20391;-59
2022/05/10 00:27:59;;;;;;;;;;;19.00;59.50;;;;;;4938979;29;20763;-59
2022/05/10 00:30:24;;;;;;;;;;;18.90;60.00;;;;;;4938867;29;19911;-59
2022/05/10 00:32:50;;;;;;;;;;;18.90;59.80;;;;;;4939049;29;20250;-59
2022/05/10 00:35:17;;;;;;;;;;;18.90;59.00;;;;;;4938985;29;19919;-58
2022/05/10 00:37:44;;;;;;;;;;;18.90;59.50;;;;;;4939001;29;20016;-59
2022/05/10 00:40:10;;;;;;;;;;;18.90;60.10;;;;;;4938549;29;19970;-59
2022/05/10 00:42:45;;;;;;;;;;;18.90;59.50;;;;;;4938730;29;19915;-60
2022/05/10 00:45:15;;;;;;;;;;;18.80;59.90;;;;;;4938699;29;19962;-59
2022/05/10 00:47:56;;;;;;;;;;;18.80;60.00;;;;;;4938608;29;19950;-59
2022/05/10 00:50:27;;;;;;;;;;;18.80;59.20;;;;;;4938437;29;19922;-58
2022/05/10 00:53:03;;;;;;;;;;;18.80;59.60;;;;;;4938449;29;19966;-58
2022/05/10 00:55:36;;;;;;;;;;;18.80;59.80;;;;;;4938776;29;19915;-59
2022/05/10 00:58:04;;;;;;;;;;;18.80;60.00;;;;;;4938626;29;19918;-58
2022/05/10 01:00:31;;;;;;;;;;;18.70;59.80;;;;;;4938373;29;19954;-58
2022/05/10 01:03:03;;;;;;;;;;;18.70;60.80;;;;;;4938472;29;19911;-58
2022/05/10 01:05:36;;;;;;;;;;;18.60;60.80;;;;;;4938263;29;20371;-59
2022/05/10 01:08:01;;;;;;;;;;;18.60;60.80;;;;;;4938628;29;19911;-59
2022/05/10 01:10:34;;;;;;;;;;;18.60;60.50;;;;;;4938396;29;19958;-58
2022/05/10 01:13:05;;;;;;;;;;;18.50;61.60;;;;;;4938574;29;19914;-58
2022/05/10 01:15:31;;;;;;;;;;;18.40;61.70;;;;;;4938435;29;19911;-57
2022/05/10 01:17:57;;;;;;;;;;;18.40;61.60;;;;;;4938162;29;19934;-57
2022/05/10 01:20:36;;;;;;;;;;;18.40;61.80;;;;;;4920295;29;19946;-59
2022/05/10 01:23:02;;;;;;;;;;;18.50;61.30;;;;;;4938485;29;20247;-59
2022/05/10 01:25:40;;;;;;;;;;;18.50;61.10;;;;;;4938096;29;19926;-57
2022/05/10 01:28:26;;;;;;;;;;;18.50;61.60;;;;;;4938193;29;20013;-58
2022/05/10 01:30:51;;;;;;;;;;;18.50;61.80;;;;;;4937530;29;19958;-58
2022/05/10 01:33:30;;;;;;;;;;;18.50;61.50;;;;;;4938029;29;19911;-58
2022/05/10 01:35:55;;;;;;;;;;;18.40;61.50;;;;;;4937957;29;20005;-57
2022/05/10 01:38:21;;;;;;;;;;;18.50;61.40;;;;;;4937834;29;20013;-58
2022/05/10 01:40:48;;;;;;;;;;;18.40;61.80;;;;;;4937929;29;20343;-58
2022/05/10 01:43:17;;;;;;;;;;;18.40;61.00;;;;;;4937720;29;19911;-58
2022/05/10 01:45:46;;;;;;;;;;;18.40;61.20;;;;;;4937631;29;19926;-58
2022/05/10 01:48:14;;;;;;;;;;;18.40;61.20;;;;;;4920824;29;20323;-58
2022/05/10 01:50:43;;;;;;;;;;;18.20;62.60;;;;;;4937346;29;19930;-58
2022/05/10 01:53:08;;;;;;;;;;;18.20;62.40;;;;;;4937541;29;19981;-57
2022/05/10 01:55:35;;;;;;;;;;;18.30;62.10;;;;;;4937426;29;19947;-58
2022/05/10 01:58:12;;;;;;;;;;;18.30;62.30;;;;;;4937692;29;19911;-58
2022/05/10 02:00:38;;;;;;;;;;;18.30;62.30;;;;;;4937270;29;19917;-57
2022/05/10 02:03:04;;;;;;;;;;;18.20;62.10;;;;;;4937568;29;19911;-59
2022/05/10 02:05:33;;;;;;;;;;;18.20;62.00;;;;;;4937454;29;19966;-59
2022/05/10 02:08:03;;;;;;;;;;;18.30;61.70;;;;;;4937397;29;20363;-59
2022/05/10 02:10:35;;;;;;;;;;;18.30;62.00;;;;;;4937049;29;19911;-58
2022/05/10 02:13:04;;;;;;;;;;;18.30;61.90;;;;;;4937082;29;19918;-57
2022/05/10 02:15:33;;;;;;;;;;;18.20;62.00;;;;;;4937192;29;19911;-59
2022/05/10 02:18:04;;;;;;;;;;;18.20;62.40;;;;;;4936738;29;20375;-59
2022/05/10 02:20:36;;;;;;;;;;;18.20;62.40;;;;;;4936745;29;19958;-59
2022/05/10 02:23:10;;;;;;;;;;;18.10;62.90;;;;;;4936925;29;20236;-58
2022/05/10 02:25:56;;;;;;;;;;;18.20;62.00;;;;;;4936779;29;19941;-57
2022/05/10 02:28:26;;;;;;;;;;;18.30;61.40;;;;;;4936571;29;20423;-60
2022/05/10 02:30:54;;;;;;;;;;;18.20;62.10;;;;;;4935999;29;19958;-61
2022/05/10 02:33:20;;;;;;;;;;;18.20;62.60;;;;;;4936254;29;20347;-59
2022/05/10 02:35:48;;;;;;;;;;;18.20;62.10;;;;;;4936625;29;19962;-60
2022/05/10 02:38:15;;;;;;;;;;;18.20;62.40;;;;;;4936368;29;19950;-60
2022/05/10 02:40:43;;;;;;;;;;;18.10;62.20;;;;;;4936502;29;19911;-59
2022/05/10 02:43:13;;;;;;;;;;;18.00;62.60;;;;;;4936502;29;19911;-59
2022/05/10 02:45:39;;;;;;;;;;;18.10;61.60;;;;;;4936437;29;20033;-61
2022/05/10 02:48:11;;;;;;;;;;;18.20;62.20;;;;;;4936274;29;20118;-59
2022/05/10 02:50:37;;;;;;;;;;;18.20;61.00;;;;;;4936033;29;19923;-60
2022/05/10 02:53:02;;;;;;;;;;;18.20;61.70;;;;;;4936280;29;19922;-58
2022/05/10 02:55:28;;;;;;;;;;;18.20;61.70;;;;;;4936053;29;20280;-58
2022/05/10 02:57:55;;;;;;;;;;;18.20;61.50;;;;;;4936012;29;20259;-57
2022/05/10 03:00:22;;;;;;;;;;;18.20;61.10;;;;;;4935680;29;20339;-58
2022/05/10 03:02:49;;;;;;;;;;;18.20;61.40;;;;;;4935879;29;19986;-58
2022/05/10 03:05:15;;;;;;;;;;;18.30;61.90;;;;;;4936222;29;19919;-59
2022/05/10 03:07:40;;;;;;;;;;;18.20;61.40;;;;;;4936030;29;20442;-60
2022/05/10 03:10:06;;;;;;;;;;;18.20;61.90;;;;;;4935981;29;20271;-57
2022/05/10 03:12:32;;;;;;;;;;;18.20;61.00;;;;;;4935648;29;19911;-59
2022/05/10 03:14:57;;;;;;;;;;;18.20;61.60;;;;;;4935961;29;19910;-59
2022/05/10 03:17:23;;;;;;;;;;;18.10;61.50;;;;;;4935737;29;19961;-59
2022/05/10 03:19:49;;;;;;;;;;;18.20;61.50;;;;;;4935698;29;19915;-58
2022/05/10 03:22:15;;;;;;;;;;;18.10;61.80;;;;;;4935781;29;19910;-58
2022/05/10 03:24:41;;;;;;;;;;;18.10;61.40;;;;;;4935745;29;19910;-59
2022/05/10 03:27:07;;;;;;;;;;;18.00;62.00;;;;;;4935811;29;20324;-58
2022/05/10 03:29:33;;;;;;;;;;;18.00;62.10;;;;;;4935592;29;20383;-59
2022/05/10 03:31:59;;;;;;;;;;;18.00;62.10;;;;;;4935560;29;20005;-59
2022/05/10 03:37:09;;;;;;;;;;;18.10;62.00;;;;;;4935560;29;19922;-62
2022/05/10 03:39:35;;;;;;;;;;;18.00;61.90;;;;;;4935363;29;19911;-58
2022/05/10 03:42:00;;;;;;;;;;;18.10;61.60;;;;;;4935480;29;20363;-58
2022/05/10 03:44:26;;;;;;;;;;;18.00;62.10;;;;;;4935424;29;19978;-58
2022/05/10 03:46:51;;;;;;;;;;;18.10;61.80;;;;;;4935469;29;19971;-58
2022/05/10 03:49:17;;;;;;;;;;;18.10;61.90;;;;;;4933732;29;19910;-59
2022/05/10 03:51:42;;;;;;;;;;;18.10;61.90;;;;;;4935378;29;19929;-60
2022/05/10 03:54:08;;;;;;;;;;;18.20;61.50;;;;;;4935335;29;20406;-57
2022/05/10 03:56:34;;;;;;;;;;;18.20;60.90;;;;;;4935475;29;19911;-58
2022/05/10 03:58:59;;;;;;;;;;;18.20;61.30;;;;;;4935702;29;19915;-59
2022/05/10 04:01:25;;;;;;;;;;;18.10;62.30;;;;;;4936335;29;19918;-58
2022/05/10 04:03:50;;;;;;;;;;;18.10;61.60;;;;;;4936354;29;19966;-58
2022/05/10 04:06:16;;;;;;;;;;;18.10;61.90;;;;;;4936089;29;19919;-58
2022/05/10 04:08:42;;;;;;;;;;;18.20;61.20;;;;;;4936290;29;19917;-58
2022/05/10 04:11:08;;;;;;;;;;;18.20;61.40;;;;;;4936241;29;19907;-59
2022/05/10 04:13:34;;;;;;;;;;;18.10;61.80;;;;;;4936153;29;19950;-58
2022/05/10 04:16:00;;;;;;;;;;;18.10;62.00;;;;;;4936007;29;19934;-60
2022/05/10 04:18:26;;;;;;;;;;;18.20;61.90;;;;;;4936287;29;20271;-59
2022/05/10 04:20:52;;;;;;;;;;;18.10;61.70;;;;;;4935939;29;19911;-60
2022/05/10 04:23:17;;;;;;;;;;;18.10;61.80;;;;;;4935839;29;19918;-59
2022/05/10 04:25:43;;;;;;;;;;;18.10;62.00;;;;;;4935926;29;19930;-59
2022/05/10 04:28:09;;;;;;;;;;;18.10;62.50;;;;;;4936037;29;20261;-58
2022/05/10 04:30:34;;;;;;;;;;;18.30;61.40;;;;;;4935972;29;19911;-58
2022/05/10 04:33:00;;;;;;;;;;;18.30;60.90;;;;;;4936286;29;19918;-59
2022/05/10 04:35:25;;;;;;;;;;;18.20;61.60;;;;;;4935726;29;20021;-59
2022/05/10 04:37:51;;;;;;;;;;;18.20;61.50;;;;;;4935755;29;19915;-59
2022/05/10 04:43:00;;;;;;;;;;;18.30;61.30;;;;;;4936384;29;19939;-58
2022/05/10 04:45:27;;;;;;;;;;;18.20;61.60;;;;;;4936097;29;19915;-60
2022/05/10 04:47:52;;;;;;;;;;;18.20;61.90;;;;;;4935964;29;19958;-58
2022/05/10 04:50:18;;;;;;;;;;;18.30;61.70;;;;;;4935593;29;19923;-57
2022/05/10 04:52:44;;;;;;;;;;;18.30;61.90;;;;;;4935669;29;19914;-58
2022/05/10 04:55:12;;;;;;;;;;;18.30;61.70;;;;;;4937392;29;19965;-60
2022/05/10 04:57:38;;;;;;;;;;;18.30;61.80;;;;;;4939321;29;19919;-58
2022/05/10 05:00:05;;;;;;;;;;;18.40;61.80;;;;;;4939145;29;20432;-57
2022/05/10 05:02:30;;;;;;;;;;;18.40;62.10;;;;;;4939108;29;19999;-59
2022/05/10 05:04:56;;;;;;;;;;;18.40;61.60;;;;;;4938842;29;19954;-64
2022/05/10 05:07:21;;;;;;;;;;;18.40;61.80;;;;;;4939445;29;20005;-60
2022/05/10 05:09:47;;;;;;;;;;;18.50;62.20;;;;;;4939338;29;19911;-58
2022/05/10 05:12:12;;;;;;;;;;;18.60;62.90;;;;;;4939263;29;20410;-61
2022/05/10 05:14:38;;;;;;;;;;;18.60;61.90;;;;;;4938933;29;19911;-58
2022/05/10 05:17:04;;;;;;;;;;;18.80;63.70;;;;;;4939230;29;19911;-59
2022/05/10 05:19:29;;;;;;;;;;;18.80;61.90;;;;;;4938859;29;19922;-57
2022/05/10 05:21:55;;;;;;;;;;;19.00;60.30;;;;;;4938786;29;19955;-59
2022/05/10 05:24:21;;;;;;;;;;;19.00;62.00;;;;;;4938942;29;19911;-59
2022/05/10 05:26:47;;;;;;;;;;;19.10;61.60;;;;;;4938929;29;19919;-59
2022/05/10 05:29:13;;;;;;;;;;;19.30;59.90;;;;;;4938535;29;19911;-58
2022/05/10 05:31:38;;;;;;;;;;;19.30;61.40;;;;;;4938585;29;19978;-59
2022/05/10 05:34:04;;;;;;;;;;;19.30;60.10;;;;;;4938832;29;19911;-58
2022/05/10 05:36:29;;;;;;;;;;;19.20;60.80;;;;;;4938661;29;20367;-58
2022/05/10 05:38:55;;;;;;;;;;;19.20;61.10;;;;;;4938778;29;19911;-60
2022/05/10 05:41:21;;;;;;;;;;;19.30;61.90;;;;;;4938657;29;19911;-62
2022/05/10 05:43:47;;;;;;;;;;;19.30;61.30;;;;;;4938592;29;20422;-60
2022/05/10 05:46:13;;;;;;;;;;;19.30;60.70;;;;;;4938350;29;19919;-59
2022/05/10 05:48:38;;;;;;;;;;;19.60;59.90;;;;;;4938183;29;19910;-60
2022/05/10 05:51:04;;;;;;;;;;;19.80;59.90;;;;;;4938142;29;19922;-60
2022/05/10 05:53:30;;;;;;;;;;;20.20;58.40;;;;;;4938360;29;19915;-59
2022/05/10 05:55:59;;;;;;;;;;;20.40;58.20;;;;;;4938230;29;19918;-62
2022/05/10 05:58:25;;;;;;;;;;;20.50;57.50;;;;;;4938243;29;20001;-60
2022/05/10 06:00:50;;;;;;;;;;;20.70;57.10;;;;;;4938208;29;19999;-58
2022/05/10 06:03:16;;;;;;;;;;;20.80;56.90;;;;;;4938471;29;20355;-61
2022/05/10 06:05:41;;;;;;;;;;;20.90;56.40;;;;;;4937798;29;19919;-59
2022/05/10 06:08:09;;;;;;;;;;;21.00;57.30;;;;;;4938118;29;20005;-59
2022/05/10 06:10:34;;;;;;;;;;;21.30;58.30;;;;;;4937990;29;19917;-59
2022/05/10 06:13:01;;;;;;;;;;;21.40;57.30;;;;;;4937991;29;19954;-60
2022/05/10 06:15:27;;;;;;;;;;;21.60;55.80;;;;;;4937896;29;19911;-59
2022/05/10 06:17:52;;;;;;;;;;;21.70;55.00;;;;;;4937733;29;19918;-62
2022/05/10 06:20:20;;;;;;;;;;;21.80;54.80;;;;;;4937842;29;19911;-60
2022/05/10 06:22:46;;;;;;;;;;;22.00;54.40;;;;;;4937801;29;20295;-61
2022/05/10 06:25:13;;;;;;;;;;;22.20;54.80;;;;;;4937807;29;19922;-62
2022/05/10 06:27:39;;;;;;;;;;;22.50;54.00;;;;;;4937893;29;19911;-63
2022/05/10 06:30:05;;;;;;;;;;;22.70;54.30;;;;;;4937520;29;19911;-61
2022/05/10 06:32:31;;;;;;;;;;;22.70;53.90;;;;;;4937509;29;19934;-61
2022/05/10 06:34:58;;;;;;;;;;;22.70;52.00;;;;;;4937384;29;20397;-61
2022/05/10 06:40:10;;;;;;;;;;;22.90;53.40;;;;;;4937122;29;20227;-73
2022/05/10 06:42:36;;;;;;;;;;;23.30;53.30;;;;;;4936773;29;19914;-71
2022/05/10 06:45:02;;;;;;;;;;;23.60;52.40;;;;;;4937152;29;19997;-68
2022/05/10 06:47:27;;;;;;;;;;;23.90;51.70;;;;;;4937313;29;20278;-74
2022/05/10 06:49:53;;;;;;;;;;;24.10;51.20;;;;;;4936964;29;19922;-67
2022/05/10 06:52:18;;;;;;;;;;;24.30;50.70;;;;;;4937202;29;20014;-70
2022/05/10 06:54:44;;;;;;;;;;;24.50;50.20;;;;;;4937145;29;19918;-74
2022/05/10 06:57:10;;;;;;;;;;;24.60;48.90;;;;;;4937036;29;20367;-75
2022/05/10 06:59:36;;;;;;;;;;;24.80;49.00;;;;;;4936832;29;19998;-75
2022/05/10 07:02:01;;;;;;;;;;;24.90;48.60;;;;;;4936928;29;19958;-72
2022/05/10 07:04:27;;;;;;;;;;;25.10;48.40;;;;;;4937069;29;19967;-71
2022/05/10 07:06:52;;;;;;;;;;;25.10;48.00;;;;;;4936818;29;19926;-69
2022/05/10 07:09:18;;;;;;;;;;;25.10;48.30;;;;;;4936555;29;19911;-73
2022/05/10 07:11:44;;;;;;;;;;;25.10;48.00;;;;;;4936734;29;19910;-75
2022/05/10 07:14:09;;;;;;;;;;;25.10;47.90;;;;;;4936741;29;19915;-71
2022/05/10 07:16:35;;;;;;;;;;;25.00;46.20;;;;;;4936862;29;20247;-72
2022/05/10 07:19:00;;;;;;;;;;;25.00;46.60;;;;;;4936619;29;20382;-73
2022/05/10 07:21:26;;;;;;;;;;;24.90;46.90;;;;;;4936563;29;19915;-74
2022/05/10 07:23:51;;;;;;;;;;;24.90;47.30;;;;;;4936717;29;19910;-65
2022/05/10 07:26:17;;;;;;;;;;;24.80;47.00;;;;;;4936312;29;19926;-72
2022/05/10 07:28:42;;;;;;;;;;;24.80;46.60;;;;;;4936521;29;19918;-67
2022/05/10 07:31:08;;;;;;;;;;;24.80;46.80;;;;;;4936415;29;19965;-70
2022/05/10 07:33:34;;;;;;;;;;;24.90;48.20;;;;;;4936918;29;19935;-64
2022/05/10 07:38:43;;;;;;;;;;;24.90;46.90;;;;;;4944757;29;20377;-64
2022/05/10 07:41:11;;;;;;;;;;;24.70;45.10;;;;;;4945443;29;19910;-63
2022/05/10 07:43:37;;;;;;;;;;;24.70;45.40;;;;;;4946252;29;19996;-64
2022/05/10 07:46:03;;;;;;;;;;;24.50;45.70;;;;;;4944922;29;19918;-63
2022/05/10 07:48:29;;;;;;;;;;;24.60;45.80;;;;;;4945252;29;19934;-62
2022/05/10 07:50:54;;;;;;;;;;;24.50;45.20;;;;;;4941197;29;20017;-69
2022/05/10 07:53:20;;;;;;;;;;;24.30;45.20;;;;;;4945951;29;19918;-67
2022/05/10 07:55:45;;;;;;;;;;;24.50;46.20;;;;;;4945467;29;19910;-68
2022/05/10 07:58:11;;;;;;;;;;;24.50;45.50;;;;;;4944378;29;19915;-68
2022/05/10 08:00:37;;;;;;;;;;;24.60;46.00;;;;;;4943519;29;19954;-69
2022/05/10 08:03:07;;;;;;;;;;;24.70;45.40;;;;;;4936013;29;20332;-67
2022/05/10 08:05:33;;;;;;;;;;;24.80;45.70;;;;;;4935808;29;19919;-65
2022/05/10 08:07:58;;;;;;;;;;;24.90;44.60;;;;;;4936051;29;19970;-69
2022/05/10 08:10:24;;;;;;;;;;;24.90;43.50;;;;;;4941147;29;20005;-65
2022/05/10 08:12:49;;;;;;;;;;;24.90;43.80;;;;;;4945635;29;19958;-67
2022/05/10 08:15:15;;;;;;;;;;;25.00;44.20;;;;;;4945261;29;19982;-68
2022/05/10 08:17:41;;;;;;;;;;;25.20;44.30;;;;;;4944172;29;19973;-65
2022/05/10 08:20:06;;;;;;;;;;;25.20;43.10;;;;;;4945910;29;19911;-67
2022/05/10 08:22:32;;;;;;;;;;;25.40;42.80;;;;;;4944656;29;19915;-65
2022/05/10 08:24:58;;;;;;;;;;;25.50;42.50;;;;;;4936823;29;19998;-62
2022/05/10 08:27:24;;;;;;;;;;;25.40;43.20;;;;;;4935765;29;19911;-73
2022/05/10 08:29:49;;;;;;;;;;;25.30;43.00;;;;;;4936773;29;19911;-62
2022/05/10 08:37:25;;;;;;;;;;;25.60;41.10;;;;;;5015162;23;19927;-64
2022/05/10 08:39:51;;;;;;;;;;;25.70;40.70;;;;;;4939404;29;20263;-67
2022/05/10 08:42:25;;;;;;;;;;;25.60;39.80;;;;;;4939488;29;19989;-64
2022/05/10 08:44:55;;;;;;;;;;;25.50;39.00;;;;;;4939109;29;19911;-62
2022/05/10 08:47:21;;;;;;;;;;;25.50;41.40;;;;;;4939311;29;19915;-62
2022/05/10 08:49:49;;;;;;;;;;;25.50;40.70;;;;;;4939723;29;19918;-61
2022/05/10 08:52:16;;;;;;;;;;;25.60;41.20;;;;;;4939382;29;20392;-61
2022/05/10 08:54:42;;;;;;;;;;;25.70;41.50;;;;;;4939130;29;19918;-62
2022/05/10 08:57:10;;;;;;;;;;;25.70;41.30;;;;;;4939465;29;20297;-62
2022/05/10 08:59:41;;;;;;;;;;;25.60;44.20;;;;;;4939161;29;19915;-62
2022/05/10 09:02:10;;;;;;;;;;;25.50;45.00;;;;;;4937310;29;20461;-63
2022/05/10 09:04:40;;;;;;;;;;;25.30;45.20;;;;;;4922385;29;19971;-63
2022/05/10 09:07:08;;;;;;;;;;;25.10;45.20;;;;;;4925510;29;20367;-62
2022/05/10 09:09:43;;;;;;;;;;;25.00;45.50;;;;;;4925021;29;20260;-61
2022/05/10 09:12:15;;;;;;;;;;;25.00;47.50;;;;;;4919890;29;19975;-61
2022/05/10 09:14:55;;;;;;;;;;;25.00;47.90;;;;;;4919828;29;19967;-62
2022/05/10 09:17:22;;;;;;;;;;;25.10;48.00;;;;;;4919889;29;19918;-62
2022/05/10 09:19:50;;;;;;;;;;;25.10;47.30;;;;;;4920153;29;19922;-63
2022/05/10 09:22:33;;;;;;;;;;;25.10;47.20;;;;;;4919998;29;19911;-62
2022/05/10 09:24:58;;;;;;;;;;;25.10;47.70;;;;;;4919743;29;19911;-61
2022/05/10 09:27:28;;;;;;;;;;;25.10;47.40;;;;;;4920048;29;19995;-62
2022/05/10 09:29:54;;;;;;;;;;;25.20;46.40;;;;;;4920018;29;19918;-62
2022/05/10 09:35:19;;;;;;;;;;;25.20;45.30;;;;;;4920114;29;19981;-61
2022/05/10 09:37:47;;;;;;;;;;;25.00;45.90;;;;;;4919363;29;19923;-60
2022/05/10 09:40:19;;;;;;;;;;;24.90;48.00;;;;;;4918998;29;19911;-61
2022/05/10 09:42:46;;;;;;;;;;;24.80;46.40;;;;;;4919614;29;20323;-63
2022/05/10 09:45:26;;;;;;;;;;;24.70;46.20;;;;;;4919386;29;19915;-62
2022/05/10 09:47:55;;;;;;;;;;;24.70;46.10;;;;;;4919115;29;19915;-61
2022/05/10 09:50:21;;;;;;;;;;;24.60;46.60;;;;;;4918979;29;19973;-58
2022/05/10 09:52:47;;;;;;;;;;;24.60;46.30;;;;;;4919481;29;19934;-60
2022/05/10 09:55:22;;;;;;;;;;;24.60;47.00;;;;;;4902548;29;19918;-60
2022/05/10 09:57:49;;;;;;;;;;;24.50;46.10;;;;;;4919053;29;19919;-63
2022/05/10 10:00:15;;;;;;;;;;;24.40;48.40;;;;;;4919161;29;19918;-64
2022/05/10 10:02:41;;;;;;;;;;;24.40;48.50;;;;;;4919257;29;20290;-58
2022/05/10 10:05:36;;;;;;;;;;;24.30;47.10;;;;;;4919114;29;19918;-63
2022/05/10 10:08:02;;;;;;;;;;;24.30;47.70;;;;;;4906533;29;20021;-59
2022/05/10 10:10:32;;;;;;;;;;;24.20;48.40;;;;;;4919171;29;20093;-58
2022/05/10 10:12:58;;;;;;;;;;;24.20;49.40;;;;;;4919155;29;20363;-58
2022/05/10 10:15:30;;;;;;;;;;;24.20;50.90;;;;;;4918871;29;20386;-59
2022/05/10 10:17:55;;;;;;;;;;;24.30;51.30;;;;;;4918607;29;19911;-58
2022/05/10 10:20:40;;;;;;;;;;;24.40;52.20;;;;;;4918793;29;20506;-64
2022/05/10 10:23:20;;;;;;;;;;;24.40;48.70;;;;;;4918793;29;19962;-71
2022/05/10 10:25:48;;;;;;;;;;;24.30;48.70;;;;;;4918557;29;19959;-59
2022/05/10 10:28:16;;;;;;;;;;;24.40;47.90;;;;;;4918573;29;20354;-59
2022/05/10 10:31:04;;;;;;;;;;;24.30;51.30;;;;;;4918810;29;19919;-58
2022/05/10 10:33:36;;;;;;;;;;;24.30;52.20;;;;;;4891666;29;19911;-58
2022/05/10 10:36:04;;;;;;;;;;;24.40;50.60;;;;;;4918974;29;19911;-61
2022/05/10 10:38:50;;;;;;;;;;;24.30;48.30;;;;;;4918403;29;19955;-60
2022/05/10 10:41:24;;;;;;;;;;;24.40;49.40;;;;;;4918824;29;19911;-60
2022/05/10 10:43:54;;;;;;;;;;;24.40;49.20;;;;;;4918311;29;19968;-62
2022/05/10 10:46:32;;;;;;;;;;;24.40;47.50;;;;;;4918434;29;20411;-60
2022/05/10 10:49:10;;;;;;;;;;;24.50;47.70;;;;;;4918393;29;19923;-61
2022/05/10 10:51:35;;;;;;;;;;;24.50;47.20;;;;;;4918373;29;19939;-61
2022/05/10 10:54:01;;;;;;;;;;;24.50;48.00;;;;;;4917722;29;19911;-60
2022/05/10 10:56:45;;;;;;;;;;;24.50;46.90;;;;;;4918045;29;19911;-61
2022/05/10 10:59:23;;;;;;;;;;;24.50;48.20;;;;;;4918052;29;19919;-61
2022/05/10 11:02:01;;;;;;;;;;;24.50;48.40;;;;;;4917953;29;19962;-60
2022/05/10 11:04:48;;;;;;;;;;;24.60;47.10;;;;;;4917859;29;19915;-60
2022/05/10 11:07:33;;;;;;;;;;;24.60;47.70;;;;;;4918003;29;20013;-61
2022/05/10 11:10:01;;;;;;;;;;;24.60;46.50;;;;;;4917947;29;20017;-61
2022/05/10 11:12:52;;;;;;;;;;;24.60;45.20;;;;;;4917739;29;19951;-66
2022/05/10 11:15:17;;;;;;;;;;;24.60;47.80;;;;;;4917525;29;19915;-60
2022/05/10 11:17:57;;;;;;;;;;;24.60;47.00;;;;;;4917758;29;19918;-61
2022/05/10 11:20:43;;;;;;;;;;;24.60;47.70;;;;;;4917647;29;20283;-63
2022/05/10 11:23:10;;;;;;;;;;;24.70;48.20;;;;;;4917177;29;19958;-63
2022/05/10 11:25:54;;;;;;;;;;;24.60;48.20;;;;;;4917430;29;19941;-63
2022/05/10 11:28:38;;;;;;;;;;;24.70;48.10;;;;;;4917438;29;20390;-70
2022/05/10 11:31:11;;;;;;;;;;;24.70;46.60;;;;;;4929283;29;19978;-66
2022/05/10 11:33:46;;;;;;;;;;;24.70;45.30;;;;;;4935971;29;20359;-63
2022/05/10 11:36:19;;;;;;;;;;;24.70;44.60;;;;;;4927576;29;20268;-63
2022/05/10 11:38:54;;;;;;;;;;;24.70;46.00;;;;;;4934225;29;19966;-62
2022/05/10 11:41:34;;;;;;;;;;;24.60;46.40;;;;;;4931960;29;20394;-63
2022/05/10 11:44:00;;;;;;;;;;;24.60;45.50;;;;;;4932077;29;20490;-64
2022/05/10 11:46:26;;;;;;;;;;;24.70;44.20;;;;;;4934299;29;19919;-60
2022/05/10 11:49:10;;;;;;;;;;;24.70;44.70;;;;;;4918248;29;19915;-61
2022/05/10 11:51:59;;;;;;;;;;;24.60;44.70;;;;;;4935505;29;19922;-61
2022/05/10 11:54:33;;;;;;;;;;;24.60;45.00;;;;;;4900088;29;19936;-70
2022/05/10 11:57:00;;;;;;;;;;;24.70;45.40;;;;;;4935728;29;20001;-70
2022/05/10 11:59:27;;;;;;;;;;;24.70;43.40;;;;;;4935773;29;20434;-71
2022/05/10 12:01:54;;;;;;;;;;;24.60;43.10;;;;;;4935618;29;19911;-68
2022/05/10 12:04:28;;;;;;;;;;;24.60;44.00;;;;;;4937100;29;19914;-69
2022/05/10 12:06:54;;;;;;;;;;;24.60;44.40;;;;;;4936915;29;19925;-69
2022/05/10 12:09:38;;;;;;;;;;;24.60;43.80;;;;;;4939608;29;19911;-63
2022/05/10 12:12:04;;;;;;;;;;;24.70;44.10;;;;;;4934768;29;19922;-70
2022/05/10 12:22:59;;;;;;;;;;;24.70;44.60;;;;;;4939367;29;19970;-66
2022/05/10 12:25:44;;;;;;;;;;;24.70;43.60;;;;;;4939272;29;19941;-60
2022/05/10 12:28:29;;;;;;;;;;;24.70;45.00;;;;;;4937787;29;20274;-72
2022/05/10 12:30:56;;;;;;;;;;;24.60;44.30;;;;;;4937952;29;19922;-74
2022/05/10 12:33:32;;;;;;;;;;;24.60;43.90;;;;;;4939134;29;19910;-67
2022/05/10 12:36:03;;;;;;;;;;;24.50;44.40;;;;;;4937100;29;19930;-70
2022/05/10 12:38:43;;;;;;;;;;;24.40;44.30;;;;;;4939297;29;20021;-67
2022/05/10 12:41:21;;;;;;;;;;;24.50;44.20;;;;;;4939417;29;19915;-63
2022/05/10 12:44:06;;;;;;;;;;;24.50;45.20;;;;;;4939122;29;20359;-65
2022/05/10 12:46:45;;;;;;;;;;;24.50;44.70;;;;;;4938636;29;19923;-65
2022/05/10 12:49:30;;;;;;;;;;;24.50;45.30;;;;;;4938763;29;19911;-62
2022/05/10 12:52:00;;;;;;;;;;;24.40;44.60;;;;;;4924489;29;19965;-65
2022/05/10 12:54:27;;;;;;;;;;;24.40;44.80;;;;;;4921755;29;19942;-63
2022/05/10 12:57:01;;;;;;;;;;;24.40;45.90;;;;;;4939538;29;19998;-64
2022/05/10 12:59:34;;;;;;;;;;;24.40;46.40;;;;;;4939262;29;19911;-65
2022/05/10 13:02:01;;;;;;;;;;;24.40;46.80;;;;;;4939411;29;19911;-65
2022/05/10 13:04:30;;;;;;;;;;;24.40;47.60;;;;;;4939234;29;19951;-63
2022/05/10 13:06:58;;;;;;;;;;;24.40;48.50;;;;;;4938978;29;19919;-62
2022/05/10 13:09:27;;;;;;;;;;;24.40;48.40;;;;;;4939054;29;19911;-62
2022/05/10 13:11:57;;;;;;;;;;;24.40;48.50;;;;;;4938960;29;19915;-67
2022/05/10 13:14:24;;;;;;;;;;;24.40;49.20;;;;;;4939139;29;19911;-63
2022/05/10 13:16:50;;;;;;;;;;;24.40;49.60;;;;;;4938059;29;19918;-62
2022/05/10 13:19:23;;;;;;;;;;;24.40;49.00;;;;;;4939158;29;20327;-64
2022/05/10 13:21:49;;;;;;;;;;;24.40;47.90;;;;;;4938935;29;19918;-63
2022/05/10 13:24:16;;;;;;;;;;;24.40;49.00;;;;;;4938712;29;19910;-62
2022/05/10 13:26:52;;;;;;;;;;;24.50;47.80;;;;;;4938835;29;20259;-63
2022/05/10 13:29:18;;;;;;;;;;;24.40;46.60;;;;;;4938412;29;19921;-67
2022/05/10 13:31:43;;;;;;;;;;;24.40;47.70;;;;;;4938848;29;19911;-59
2022/05/10 13:34:11;;;;;;;;;;;24.40;46.60;;;;;;4938627;29;20349;-63
2022/05/10 13:36:37;;;;;;;;;;;24.50;47.00;;;;;;4938241;29;19926;-61
2022/05/10 13:39:03;;;;;;;;;;;24.40;47.50;;;;;;4938639;29;19919;-66
2022/05/10 13:41:33;;;;;;;;;;;24.40;48.10;;;;;;4938469;29;19910;-68
2022/05/10 13:44:22;;;;;;;;;;;24.50;48.20;;;;;;4938467;29;19915;-68
2022/05/10 13:46:54;;;;;;;;;;;24.50;48.40;;;;;;4938203;29;19970;-67
2022/05/10 13:49:41;;;;;;;;;;;24.50;47.80;;;;;;4936992;29;20005;-62
2022/05/10 13:52:08;;;;;;;;;;;24.50;48.50;;;;;;4937927;29;19953;-67
2022/05/10 13:54:37;;;;;;;;;;;24.40;47.60;;;;;;4938092;29;20341;-66
2022/05/10 13:57:12;;;;;;;;;;;24.40;49.10;;;;;;4938365;29;19911;-63
2022/05/10 13:59:38;;;;;;;;;;;24.20;48.10;;;;;;4937911;29;20010;-61
2022/05/10 14:02:05;;;;;;;;;;;24.30;47.20;;;;;;4937796;29;19993;-62
2022/05/10 14:04:30;;;;;;;;;;;24.20;46.70;;;;;;4938014;29;19911;-61
2022/05/10 14:06:58;;;;;;;;;;;24.10;46.70;;;;;;4937993;29;19925;-62
2022/05/10 14:09:26;;;;;;;;;;;24.00;46.60;;;;;;4938167;29;19911;-71
2022/05/10 14:11:53;;;;;;;;;;;24.10;47.50;;;;;;4938026;29;19918;-61
2022/05/10 14:14:23;;;;;;;;;;;24.20;47.80;;;;;;4937831;29;20253;-65
2022/05/10 14:16:48;;;;;;;;;;;24.30;47.60;;;;;;4938005;29;20038;-63
2022/05/10 14:19:33;;;;;;;;;;;24.30;47.70;;;;;;4937950;29;19957;-63
2022/05/10 14:22:01;;;;;;;;;;;24.30;48.20;;;;;;4937819;29;19938;-61
2022/05/10 14:24:27;;;;;;;;;;;24.30;47.10;;;;;;4937839;29;19917;-64
2022/05/10 14:27:04;;;;;;;;;;;24.30;47.30;;;;;;4937778;29;19919;-62
2022/05/10 14:29:38;;;;;;;;;;;24.30;47.10;;;;;;4937692;29;19911;-63
2022/05/10 14:32:05;;;;;;;;;;;24.20;47.00;;;;;;4936673;29;19923;-64
2022/05/10 14:34:50;;;;;;;;;;;24.10;46.80;;;;;;4937079;29;20266;-64
2022/05/10 14:37:17;;;;;;;;;;;24.20;47.60;;;;;;4935316;29;19923;-63
2022/05/10 14:39:43;;;;;;;;;;;24.20;48.00;;;;;;4936843;29;20386;-63
2022/05/10 14:42:21;;;;;;;;;;;24.20;47.80;;;;;;4936584;29;19911;-62
2022/05/10 14:44:46;;;;;;;;;;;24.10;48.20;;;;;;4935538;29;20010;-62
2022/05/10 14:47:34;;;;;;;;;;;24.00;49.20;;;;;;4936508;29;19919;-62
2022/05/10 14:50:00;;;;;;;;;;;24.00;49.30;;;;;;4924773;29;19915;-63
2022/05/10 14:52:25;;;;;;;;;;;24.00;49.80;;;;;;4936717;29;19911;-62
2022/05/10 14:54:52;;;;;;;;;;;23.90;49.90;;;;;;4936473;29;19918;-59